createdAt,value
2022-09-01T00:00:20.085Z,1021.6
2022-09-01T00:05:20.101Z,1021.5
2022-09-01T00:10:20.095Z,1021.7
2022-09-01T00:15:20.109Z,1021.7
2022-09-01T00:20:20.797Z,1021.6
2022-09-01T00:25:20.222Z,1021.7
2022-09-01T00:30:20.092Z,1021.6
2022-09-01T00:35:20.090Z,1021.7
2022-09-01T00:40:20.140Z,1021.7
2022-09-01T00:45:20.091Z,1021.7
2022-09-01T00:50:20.101Z,1021.7
2022-09-01T00:55:20.092Z,1021.7
2022-09-01T01:00:20.090Z,1021.7
2022-09-01T01:05:20.096Z,1021.7
2022-09-01T01:10:20.097Z,1021.6
2022-09-01T01:15:20.094Z,1021.6
2022-09-01T01:20:20.087Z,1021.5
2022-09-01T01:25:20.095Z,1021.6
2022-09-01T01:30:20.094Z,1021.6
2022-09-01T01:35:20.108Z,1021.6
2022-09-01T01:40:20.146Z,1021.4
2022-09-01T01:45:20.102Z,1021.5
2022-09-01T01:50:20.092Z,1021.5
2022-09-01T01:55:20.092Z,1021.4
2022-09-01T02:00:20.907Z,1021.5
2022-09-01T02:05:20.093Z,1021.5
2022-09-01T02:10:20.080Z,1021.5
2022-09-01T02:15:20.094Z,1021.5
2022-09-01T02:20:20.106Z,1021.5
2022-09-01T02:25:20.093Z,1021.4
2022-09-01T02:30:20.096Z,1021.4
2022-09-01T02:35:20.095Z,1021.3
2022-09-01T02:40:20.145Z,1021.3
2022-09-01T02:45:20.101Z,1021.2
2022-09-01T02:50:20.106Z,1021.2
2022-09-01T02:55:20.089Z,1021.2
2022-09-01T03:00:20.094Z,1021.1
2022-09-01T03:05:20.089Z,1021.1
2022-09-01T03:10:20.099Z,1021.1
2022-09-01T03:15:20.098Z,1021.2
2022-09-01T03:20:20.096Z,1021.1
2022-09-01T03:25:20.096Z,1021
2022-09-01T03:30:20.105Z,1021
2022-09-01T03:35:20.103Z,1021.1
2022-09-01T03:40:20.114Z,1021.1
2022-09-01T03:45:20.105Z,1021.1
2022-09-01T03:50:20.092Z,1021.1
2022-09-01T03:55:20.097Z,1021.1
2022-09-01T04:00:20.116Z,1021.1
2022-09-01T04:05:20.095Z,1021.1
2022-09-01T04:10:20.092Z,1021.2
2022-09-01T04:15:20.101Z,1021.1
2022-09-01T04:20:20.208Z,1021.2
2022-09-01T04:25:20.089Z,1021.2
2022-09-01T04:30:20.093Z,1021.2
2022-09-01T04:35:20.097Z,1021.2
2022-09-01T04:40:20.145Z,1021.3
2022-09-01T04:45:20.827Z,1021.2
2022-09-01T04:50:20.095Z,1021.2
2022-09-01T04:55:20.091Z,1021.3
2022-09-01T05:00:20.093Z,1021.3
2022-09-01T05:05:20.093Z,1021.3
2022-09-01T05:10:20.103Z,1021.3
2022-09-01T05:15:20.102Z,1021.3
2022-09-01T05:20:20.093Z,1021.3
2022-09-01T05:25:20.103Z,1021.3
2022-09-01T05:30:20.094Z,1021.4
2022-09-01T05:35:20.106Z,1021.5
2022-09-01T05:40:20.179Z,1021.5
2022-09-01T05:45:20.096Z,1021.5
2022-09-01T05:50:20.107Z,1021.6
2022-09-01T05:55:20.100Z,1021.6
2022-09-01T06:00:20.113Z,1021.6
2022-09-01T06:05:20.109Z,1021.5
2022-09-01T06:10:20.107Z,1021.6
2022-09-01T06:15:20.092Z,1021.6
2022-09-01T06:20:20.096Z,1021.6
2022-09-01T06:25:20.104Z,1021.7
2022-09-01T06:30:23.369Z,1021.6
2022-09-01T06:35:20.094Z,1021.7
2022-09-01T06:40:20.186Z,1021.7
2022-09-01T06:45:20.097Z,1021.7
2022-09-01T06:55:20.097Z,1021.6
2022-09-01T07:00:20.089Z,1021.6
2022-09-01T07:10:21.132Z,1021.8
2022-09-01T07:20:23.543Z,1021.8
2022-09-01T07:25:20.096Z,1021.8
2022-09-01T07:30:20.895Z,1021.7
2022-09-01T07:35:20.090Z,1021.8
2022-09-01T07:45:28.166Z,1021.7
2022-09-01T07:55:20.102Z,1021.7
2022-09-01T08:00:20.159Z,1021.8
2022-09-01T08:05:20.102Z,1021.8
2022-09-01T08:10:20.501Z,1021.8
2022-09-01T08:20:20.109Z,1021.7
2022-09-01T08:25:24.284Z,1021.8
2022-09-01T08:30:20.093Z,1021.8
2022-09-01T08:35:20.095Z,1021.7
2022-09-01T08:40:20.244Z,1021.8
2022-09-01T08:45:20.105Z,1021.8
2022-09-01T08:50:20.086Z,1021.6
2022-09-01T08:55:20.091Z,1021.6
2022-09-01T09:00:20.087Z,1021.5
2022-09-01T09:05:20.103Z,1021.5
2022-09-01T09:10:20.095Z,1021.5
2022-09-01T09:15:20.101Z,1021.5
2022-09-01T09:20:20.098Z,1021.5
2022-09-01T09:25:20.095Z,1021.4
2022-09-01T09:30:20.103Z,1021.4
2022-09-01T09:35:20.095Z,1021.3
2022-09-01T09:40:20.201Z,1021.3
2022-09-01T09:45:20.376Z,1021.3
2022-09-01T09:50:20.349Z,1021.2
2022-09-01T09:55:20.107Z,1021
2022-09-01T10:00:23.773Z,1021
2022-09-01T10:05:20.099Z,1021
2022-09-01T10:10:20.093Z,1021
2022-09-01T10:15:20.099Z,1021
2022-09-01T10:20:20.087Z,1021
2022-09-01T10:25:20.123Z,1020.9
2022-09-01T10:30:20.667Z,1020.9
2022-09-01T10:35:20.097Z,1020.9
2022-09-01T10:40:20.867Z,1020.9
2022-09-01T10:45:20.094Z,1020.8
2022-09-01T10:50:20.096Z,1020.8
2022-09-01T10:55:24.384Z,1020.8
2022-09-01T11:00:35.522Z,1020.8
2022-09-01T11:05:20.125Z,1020.8
2022-09-01T11:10:35.790Z,1020.7
2022-09-01T11:15:20.105Z,1020.6
2022-09-01T11:20:20.096Z,1020.5
2022-09-01T11:25:20.099Z,1020.6
2022-09-01T11:30:20.099Z,1020.6
2022-09-01T11:35:20.110Z,1020.5
2022-09-01T11:40:20.129Z,1020.5
2022-09-01T11:45:21.474Z,1020.4
2022-09-01T11:50:20.105Z,1020.3
2022-09-01T11:55:20.116Z,1020.3
2022-09-01T12:00:20.085Z,1020.3
2022-09-01T12:05:20.104Z,1020.2
2022-09-01T12:10:20.096Z,1020.2
2022-09-01T12:15:20.105Z,1020.2
2022-09-01T12:20:20.090Z,1020.1
2022-09-01T12:25:20.098Z,1020.2
2022-09-01T12:30:20.088Z,1020.1
2022-09-01T12:35:20.093Z,1020.1
2022-09-01T12:40:20.531Z,1020
2022-09-01T12:45:20.102Z,1020
2022-09-01T12:50:20.090Z,1020
2022-09-01T13:00:20.096Z,1019.9
2022-09-01T13:05:20.093Z,1019.9
2022-09-01T13:10:20.095Z,1019.8
2022-09-01T13:15:20.112Z,1019.8
2022-09-01T13:20:20.091Z,1019.7
2022-09-01T13:25:20.091Z,1019.7
2022-09-01T13:30:20.088Z,1019.8
2022-09-01T13:35:20.087Z,1019.7
2022-09-01T13:40:20.137Z,1019.7
2022-09-01T13:45:20.104Z,1019.8
2022-09-01T13:50:23.774Z,1019.6
2022-09-01T13:55:20.090Z,1019.6
2022-09-01T14:00:20.088Z,1019.6
2022-09-01T14:05:20.096Z,1019.5
2022-09-01T14:10:20.103Z,1019.6
2022-09-01T14:15:23.788Z,1019.6
2022-09-01T14:20:20.097Z,1019.6
2022-09-01T14:25:20.103Z,1019.5
2022-09-01T14:30:20.098Z,1019.5
2022-09-01T14:35:20.090Z,1019.5
2022-09-01T14:40:20.114Z,1019.4
2022-09-01T14:45:20.096Z,1019.4
2022-09-01T14:50:22.358Z,1019.4
2022-09-01T14:55:20.101Z,1019.4
2022-09-01T15:00:20.093Z,1019.4
2022-09-01T15:05:20.100Z,1019.4
2022-09-01T15:10:23.454Z,1019.3
2022-09-01T15:15:20.102Z,1019.4
2022-09-01T15:20:20.097Z,1019.3
2022-09-01T15:25:20.107Z,1019.3
2022-09-01T15:30:20.095Z,1019.1
2022-09-01T15:35:20.111Z,1019.2
2022-09-01T15:40:20.171Z,1019.2
2022-09-01T15:45:20.085Z,1019.2
2022-09-01T15:50:22.036Z,1019.2
2022-09-01T15:55:20.093Z,1019.2
2022-09-01T16:00:20.093Z,1019.3
2022-09-01T16:05:20.099Z,1019.1
2022-09-01T16:10:20.087Z,1019
2022-09-01T16:15:20.116Z,1019.1
2022-09-01T16:20:20.098Z,1019.1
2022-09-01T16:25:20.111Z,1019.1
2022-09-01T16:30:20.108Z,1019.1
2022-09-01T16:35:20.212Z,1019.2
2022-09-01T16:40:20.123Z,1019.1
2022-09-01T16:45:20.116Z,1019
2022-09-01T16:50:20.110Z,1019
2022-09-01T16:55:20.106Z,1019
2022-09-01T17:00:20.087Z,1019.1
2022-09-01T17:05:20.099Z,1019
2022-09-01T17:10:20.089Z,1019
2022-09-01T17:15:20.112Z,1019
2022-09-01T17:20:20.098Z,1019
2022-09-01T17:25:20.093Z,1019
2022-09-01T17:30:20.090Z,1019
2022-09-01T17:35:20.095Z,1019.1
2022-09-01T17:40:20.145Z,1019.1
2022-09-01T17:45:20.096Z,1019.1
2022-09-01T17:50:20.106Z,1019.1
2022-09-01T17:55:20.097Z,1019.3
2022-09-01T18:00:20.116Z,1019.2
2022-09-01T18:05:20.150Z,1019.2
2022-09-01T18:10:20.103Z,1019.3
2022-09-01T18:15:20.125Z,1019.2
2022-09-01T18:20:20.108Z,1019.2
2022-09-01T18:25:20.120Z,1019.3
2022-09-01T18:30:31.122Z,1019.4
2022-09-01T18:35:20.105Z,1019.5
2022-09-01T18:40:20.146Z,1019.5
2022-09-01T18:45:20.105Z,1019.5
2022-09-01T18:50:20.099Z,1019.6
2022-09-01T18:55:20.099Z,1019.6
2022-09-01T19:00:20.084Z,1019.7
2022-09-01T19:05:20.135Z,1019.7
2022-09-01T19:10:20.098Z,1019.7
2022-09-01T19:15:20.089Z,1019.8
2022-09-01T19:20:20.108Z,1019.8
2022-09-01T19:25:20.101Z,1019.8
2022-09-01T19:30:20.089Z,1019.9
2022-09-01T19:35:20.091Z,1019.9
2022-09-01T19:40:21.935Z,1019.9
2022-09-01T19:45:20.124Z,1019.9
2022-09-01T19:50:20.106Z,1020
2022-09-01T19:55:20.092Z,1019.9
2022-09-01T20:00:20.101Z,1019.9
2022-09-01T20:05:20.104Z,1020
2022-09-01T20:10:20.100Z,1020.1
2022-09-01T20:15:20.114Z,1020.1
2022-09-01T20:20:20.092Z,1020.1
2022-09-01T20:25:20.097Z,1020
2022-09-01T20:30:20.101Z,1019.9
2022-09-01T20:35:20.088Z,1019.9
2022-09-01T20:40:20.167Z,1020
2022-09-01T20:45:20.109Z,1020
2022-09-01T20:50:20.102Z,1020.1
2022-09-01T20:55:20.102Z,1020.1
2022-09-01T21:00:20.102Z,1020
2022-09-01T21:05:20.097Z,1020
2022-09-01T21:10:20.095Z,1020.1
2022-09-01T21:15:20.092Z,1020.1
2022-09-01T21:20:20.097Z,1020.2
2022-09-01T21:25:20.106Z,1020.1
2022-09-01T21:30:20.095Z,1020.1
2022-09-01T21:35:20.101Z,1020.2
2022-09-01T21:40:20.154Z,1020.2
2022-09-01T21:45:20.091Z,1020.2
2022-09-01T21:50:20.106Z,1020.2
2022-09-01T21:55:22.830Z,1020.3
2022-09-01T22:00:20.096Z,1020.2
2022-09-01T22:05:20.097Z,1020.2
2022-09-01T22:10:20.091Z,1020.3
2022-09-01T22:15:20.100Z,1020.2
2022-09-01T22:20:20.094Z,1020.1
2022-09-01T22:25:20.093Z,1020.2
2022-09-01T22:30:20.100Z,1020.2
2022-09-01T22:35:20.086Z,1020.2
2022-09-01T22:40:20.151Z,1020.2
2022-09-01T22:45:20.106Z,1020.2
2022-09-01T22:50:20.084Z,1020.3
2022-09-01T22:55:20.110Z,1020.3
2022-09-01T23:00:20.096Z,1020.4
2022-09-01T23:05:20.091Z,1020.4
2022-09-01T23:10:20.097Z,1020.3
2022-09-01T23:15:20.111Z,1020.3
2022-09-01T23:20:20.092Z,1020.3
2022-09-01T23:25:20.113Z,1020.2
2022-09-01T23:30:20.098Z,1020.2
2022-09-01T23:35:20.101Z,1020.2
2022-09-01T23:40:20.187Z,1020.2
2022-09-01T23:45:20.087Z,1020.1
2022-09-01T23:50:20.093Z,1020.2
2022-09-01T23:55:20.101Z,1020.2
